sensor_id;sensor_type;location;lat;lon;timestamp;P1;durP1;ratioP1;P2;durP2;ratioP2
830;SDS011;397;50.564;7.272;2023-08-06T00:01:22;4.97;;;3.90;;
830;SDS011;397;50.564;7.272;2023-08-06T00:03:51;3.93;;;3.23;;
830;SDS011;397;50.564;7.272;2023-08-06T00:06:18;6.47;;;3.77;;
830;SDS011;397;50.564;7.272;2023-08-06T00:08:46;4.70;;;3.60;;
830;SDS011;397;50.564;7.272;2023-08-06T00:11:13;5.00;;;3.60;;
830;SDS011;397;50.564;7.272;2023-08-06T00:13:41;3.83;;;3.43;;
830;SDS011;397;50.564;7.272;2023-08-06T00:16:13;5.40;;;3.57;;
830;SDS011;397;50.564;7.272;2023-08-06T00:18:38;5.00;;;4.10;;
830;SDS011;397;50.564;7.272;2023-08-06T00:21:06;4.33;;;3.93;;
830;SDS011;397;50.564;7.272;2023-08-06T00:23:34;5.00;;;4.23;;
830;SDS011;397;50.564;7.272;2023-08-06T00:28:48;5.43;;;3.93;;
830;SDS011;397;50.564;7.272;2023-08-06T00:31:16;5.23;;;4.60;;
830;SDS011;397;50.564;7.272;2023-08-06T00:33:43;5.87;;;4.20;;
830;SDS011;397;50.564;7.272;2023-08-06T00:36:11;4.63;;;4.13;;
830;SDS011;397;50.564;7.272;2023-08-06T00:38:38;5.47;;;3.90;;
830;SDS011;397;50.564;7.272;2023-08-06T00:41:06;5.17;;;4.13;;
830;SDS011;397;50.564;7.272;2023-08-06T00:43:33;6.83;;;4.10;;
830;SDS011;397;50.564;7.272;2023-08-06T00:46:01;4.80;;;4.13;;
830;SDS011;397;50.564;7.272;2023-08-06T00:48:28;5.53;;;3.90;;
830;SDS011;397;50.564;7.272;2023-08-06T00:50:56;5.43;;;4.63;;
830;SDS011;397;50.564;7.272;2023-08-06T00:53:23;7.57;;;4.87;;
830;SDS011;397;50.564;7.272;2023-08-06T00:55:51;5.47;;;4.87;;
830;SDS011;397;50.564;7.272;2023-08-06T00:58:19;6.87;;;5.17;;
830;SDS011;397;50.564;7.272;2023-08-06T01:00:46;6.27;;;4.50;;
830;SDS011;397;50.564;7.272;2023-08-06T01:03:14;6.07;;;5.57;;
830;SDS011;397;50.564;7.272;2023-08-06T01:05:42;9.03;;;5.10;;
830;SDS011;397;50.564;7.272;2023-08-06T01:13:43;5.63;;;5.03;;
830;SDS011;397;50.564;7.272;2023-08-06T01:16:16;6.03;;;4.50;;
830;SDS011;397;50.564;7.272;2023-08-06T01:18:46;4.40;;;3.63;;
830;SDS011;397;50.564;7.272;2023-08-06T01:21:15;5.37;;;4.03;;
830;SDS011;397;50.564;7.272;2023-08-06T01:23:44;7.20;;;4.53;;
830;SDS011;397;50.564;7.272;2023-08-06T01:31:45;6.53;;;5.27;;
830;SDS011;397;50.564;7.272;2023-08-06T01:34:19;7.73;;;5.00;;
830;SDS011;397;50.564;7.272;2023-08-06T01:36:54;6.57;;;4.80;;
830;SDS011;397;50.564;7.272;2023-08-06T01:39:22;7.57;;;4.10;;
830;SDS011;397;50.564;7.272;2023-08-06T01:41:50;5.90;;;4.27;;
830;SDS011;397;50.564;7.272;2023-08-06T01:44:17;5.90;;;4.20;;
830;SDS011;397;50.564;7.272;2023-08-06T01:46:45;5.10;;;3.77;;
830;SDS011;397;50.564;7.272;2023-08-06T01:49:12;4.37;;;3.97;;
830;SDS011;397;50.564;7.272;2023-08-06T01:51:40;5.30;;;4.20;;
830;SDS011;397;50.564;7.272;2023-08-06T01:54:08;5.23;;;4.73;;
830;SDS011;397;50.564;7.272;2023-08-06T01:56:35;6.90;;;5.17;;
830;SDS011;397;50.564;7.272;2023-08-06T01:59:02;5.03;;;4.33;;
830;SDS011;397;50.564;7.272;2023-08-06T02:01:30;6.47;;;4.50;;
830;SDS011;397;50.564;7.272;2023-08-06T02:03:58;4.60;;;4.20;;
830;SDS011;397;50.564;7.272;2023-08-06T02:06:25;4.47;;;3.40;;
830;SDS011;397;50.564;7.272;2023-08-06T02:08:52;5.83;;;4.40;;
830;SDS011;397;50.564;7.272;2023-08-06T02:11:20;5.27;;;4.33;;
830;SDS011;397;50.564;7.272;2023-08-06T02:13:47;5.50;;;4.37;;
830;SDS011;397;50.564;7.272;2023-08-06T02:16:15;15.27;;;5.30;;
830;SDS011;397;50.564;7.272;2023-08-06T02:18:42;6.40;;;5.33;;
830;SDS011;397;50.564;7.272;2023-08-06T02:21:10;7.20;;;5.03;;
830;SDS011;397;50.564;7.272;2023-08-06T02:23:37;6.90;;;4.87;;
830;SDS011;397;50.564;7.272;2023-08-06T02:26:05;6.60;;;5.87;;
830;SDS011;397;50.564;7.272;2023-08-06T02:28:32;5.77;;;4.67;;
830;SDS011;397;50.564;7.272;2023-08-06T02:31:00;5.00;;;4.50;;
830;SDS011;397;50.564;7.272;2023-08-06T02:33:27;5.37;;;4.10;;
830;SDS011;397;50.564;7.272;2023-08-06T02:35:58;4.30;;;3.90;;
830;SDS011;397;50.564;7.272;2023-08-06T02:38:27;4.00;;;3.13;;
830;SDS011;397;50.564;7.272;2023-08-06T02:40:54;5.23;;;3.80;;
830;SDS011;397;50.564;7.272;2023-08-06T02:43:22;4.30;;;3.70;;
830;SDS011;397;50.564;7.272;2023-08-06T02:45:49;4.63;;;2.93;;
830;SDS011;397;50.564;7.272;2023-08-06T02:48:17;6.30;;;3.03;;
830;SDS011;397;50.564;7.272;2023-08-06T02:50:44;4.03;;;3.07;;
830;SDS011;397;50.564;7.272;2023-08-06T02:53:12;6.07;;;3.40;;
830;SDS011;397;50.564;7.272;2023-08-06T02:55:44;4.23;;;3.03;;
830;SDS011;397;50.564;7.272;2023-08-06T02:58:13;4.63;;;3.20;;
830;SDS011;397;50.564;7.272;2023-08-06T03:00:42;4.60;;;3.13;;
830;SDS011;397;50.564;7.272;2023-08-06T03:03:10;3.63;;;2.20;;
830;SDS011;397;50.564;7.272;2023-08-06T03:05:38;6.57;;;3.20;;
830;SDS011;397;50.564;7.272;2023-08-06T03:08:05;5.40;;;2.90;;
830;SDS011;397;50.564;7.272;2023-08-06T03:10:33;4.60;;;2.80;;
830;SDS011;397;50.564;7.272;2023-08-06T03:13:01;4.87;;;2.50;;
830;SDS011;397;50.564;7.272;2023-08-06T03:15:28;3.30;;;2.17;;
830;SDS011;397;50.564;7.272;2023-08-06T03:17:56;5.77;;;4.07;;
830;SDS011;397;50.564;7.272;2023-08-06T03:20:24;3.70;;;2.53;;
830;SDS011;397;50.564;7.272;2023-08-06T03:22:52;5.13;;;3.30;;
830;SDS011;397;50.564;7.272;2023-08-06T03:25:19;5.13;;;2.60;;
830;SDS011;397;50.564;7.272;2023-08-06T03:27:47;5.77;;;2.73;;
830;SDS011;397;50.564;7.272;2023-08-06T03:30:14;3.73;;;1.70;;
830;SDS011;397;50.564;7.272;2023-08-06T03:32:42;5.73;;;3.13;;
830;SDS011;397;50.564;7.272;2023-08-06T03:35:09;4.63;;;2.60;;
830;SDS011;397;50.564;7.272;2023-08-06T03:37:37;2.67;;;2.07;;
830;SDS011;397;50.564;7.272;2023-08-06T03:40:04;5.70;;;3.27;;
830;SDS011;397;50.564;7.272;2023-08-06T03:42:32;6.37;;;3.07;;
830;SDS011;397;50.564;7.272;2023-08-06T03:45:00;5.20;;;3.40;;
830;SDS011;397;50.564;7.272;2023-08-06T03:47:27;7.40;;;3.60;;
830;SDS011;397;50.564;7.272;2023-08-06T03:49:55;4.90;;;3.37;;
830;SDS011;397;50.564;7.272;2023-08-06T03:52:22;4.23;;;3.60;;
830;SDS011;397;50.564;7.272;2023-08-06T03:54:50;4.30;;;2.73;;
830;SDS011;397;50.564;7.272;2023-08-06T03:57:17;3.97;;;3.07;;
830;SDS011;397;50.564;7.272;2023-08-06T03:59:45;6.30;;;2.90;;
830;SDS011;397;50.564;7.272;2023-08-06T04:02:12;5.10;;;2.90;;
830;SDS011;397;50.564;7.272;2023-08-06T04:04:40;4.97;;;2.30;;
830;SDS011;397;50.564;7.272;2023-08-06T04:07:07;3.80;;;2.20;;
830;SDS011;397;50.564;7.272;2023-08-06T04:09:35;4.13;;;2.30;;
830;SDS011;397;50.564;7.272;2023-08-06T04:12:05;5.33;;;2.70;;
830;SDS011;397;50.564;7.272;2023-08-06T04:14:33;4.10;;;2.50;;
830;SDS011;397;50.564;7.272;2023-08-06T04:17:01;5.80;;;2.57;;
830;SDS011;397;50.564;7.272;2023-08-06T04:19:28;3.97;;;2.10;;
830;SDS011;397;50.564;7.272;2023-08-06T04:21:56;3.20;;;2.47;;
830;SDS011;397;50.564;7.272;2023-08-06T04:24:23;2.97;;;1.83;;
830;SDS011;397;50.564;7.272;2023-08-06T04:26:51;4.77;;;2.20;;
830;SDS011;397;50.564;7.272;2023-08-06T04:29:18;3.50;;;2.30;;
830;SDS011;397;50.564;7.272;2023-08-06T04:31:47;3.97;;;2.40;;
830;SDS011;397;50.564;7.272;2023-08-06T04:34:14;3.83;;;1.70;;
830;SDS011;397;50.564;7.272;2023-08-06T04:36:42;4.03;;;2.20;;
830;SDS011;397;50.564;7.272;2023-08-06T04:39:09;3.60;;;2.00;;
830;SDS011;397;50.564;7.272;2023-08-06T04:41:37;4.90;;;2.10;;
830;SDS011;397;50.564;7.272;2023-08-06T04:44:04;4.83;;;2.00;;
830;SDS011;397;50.564;7.272;2023-08-06T04:46:32;4.63;;;2.10;;
830;SDS011;397;50.564;7.272;2023-08-06T04:48:59;5.37;;;2.00;;
830;SDS011;397;50.564;7.272;2023-08-06T04:51:27;3.77;;;1.93;;
830;SDS011;397;50.564;7.272;2023-08-06T04:53:56;3.20;;;1.80;;
830;SDS011;397;50.564;7.272;2023-08-06T04:56:24;5.47;;;2.40;;
830;SDS011;397;50.564;7.272;2023-08-06T04:58:51;3.83;;;2.20;;
830;SDS011;397;50.564;7.272;2023-08-06T05:01:19;8.97;;;2.20;;
830;SDS011;397;50.564;7.272;2023-08-06T05:03:47;3.80;;;2.57;;
830;SDS011;397;50.564;7.272;2023-08-06T05:06:14;4.43;;;2.27;;
830;SDS011;397;50.564;7.272;2023-08-06T05:08:42;3.80;;;2.30;;
830;SDS011;397;50.564;7.272;2023-08-06T05:11:09;3.77;;;2.00;;
830;SDS011;397;50.564;7.272;2023-08-06T05:16:23;6.77;;;3.90;;
830;SDS011;397;50.564;7.272;2023-08-06T05:18:51;5.53;;;2.63;;
830;SDS011;397;50.564;7.272;2023-08-06T05:21:18;4.30;;;2.30;;
830;SDS011;397;50.564;7.272;2023-08-06T05:23:46;2.87;;;2.00;;
830;SDS011;397;50.564;7.272;2023-08-06T05:26:13;3.67;;;2.40;;
830;SDS011;397;50.564;7.272;2023-08-06T05:28:43;4.43;;;2.70;;
830;SDS011;397;50.564;7.272;2023-08-06T05:31:11;3.20;;;2.10;;
830;SDS011;397;50.564;7.272;2023-08-06T05:33:39;4.00;;;2.20;;
830;SDS011;397;50.564;7.272;2023-08-06T05:36:07;3.30;;;2.20;;
830;SDS011;397;50.564;7.272;2023-08-06T05:38:34;5.90;;;2.23;;
830;SDS011;397;50.564;7.272;2023-08-06T05:41:02;5.80;;;2.20;;
830;SDS011;397;50.564;7.272;2023-08-06T05:43:29;3.33;;;2.40;;
830;SDS011;397;50.564;7.272;2023-08-06T05:45:57;4.50;;;1.93;;
830;SDS011;397;50.564;7.272;2023-08-06T05:48:24;3.60;;;1.97;;
830;SDS011;397;50.564;7.272;2023-08-06T05:50:53;6.10;;;2.47;;
830;SDS011;397;50.564;7.272;2023-08-06T05:53:21;3.63;;;1.83;;
830;SDS011;397;50.564;7.272;2023-08-06T05:55:48;5.37;;;2.57;;
830;SDS011;397;50.564;7.272;2023-08-06T05:58:16;3.23;;;1.90;;
830;SDS011;397;50.564;7.272;2023-08-06T06:00:45;3.00;;;2.17;;
830;SDS011;397;50.564;7.272;2023-08-06T06:03:13;4.30;;;2.43;;
830;SDS011;397;50.564;7.272;2023-08-06T06:05:40;4.50;;;2.37;;
830;SDS011;397;50.564;7.272;2023-08-06T06:08:08;3.93;;;1.97;;
830;SDS011;397;50.564;7.272;2023-08-06T06:10:35;2.57;;;1.83;;
830;SDS011;397;50.564;7.272;2023-08-06T06:13:03;2.93;;;1.53;;
830;SDS011;397;50.564;7.272;2023-08-06T06:15:30;3.67;;;1.37;;
830;SDS011;397;50.564;7.272;2023-08-06T06:17:58;1.97;;;1.10;;
830;SDS011;397;50.564;7.272;2023-08-06T06:20:25;3.00;;;1.30;;
830;SDS011;397;50.564;7.272;2023-08-06T06:22:53;2.80;;;1.27;;
830;SDS011;397;50.564;7.272;2023-08-06T06:25:20;2.03;;;1.10;;
830;SDS011;397;50.564;7.272;2023-08-06T06:27:48;4.37;;;1.27;;
830;SDS011;397;50.564;7.272;2023-08-06T06:30:15;5.30;;;1.80;;
830;SDS011;397;50.564;7.272;2023-08-06T06:32:43;3.33;;;1.43;;
830;SDS011;397;50.564;7.272;2023-08-06T06:35:10;3.30;;;1.50;;
830;SDS011;397;50.564;7.272;2023-08-06T06:37:39;12.43;;;2.10;;
830;SDS011;397;50.564;7.272;2023-08-06T06:40:06;3.23;;;1.80;;
830;SDS011;397;50.564;7.272;2023-08-06T06:42:34;2.07;;;0.93;;
830;SDS011;397;50.564;7.272;2023-08-06T06:45:02;2.20;;;0.87;;
830;SDS011;397;50.564;7.272;2023-08-06T06:47:29;5.40;;;1.40;;
830;SDS011;397;50.564;7.272;2023-08-06T06:49:57;2.87;;;1.27;;
830;SDS011;397;50.564;7.272;2023-08-06T06:52:24;5.10;;;1.10;;
830;SDS011;397;50.564;7.272;2023-08-06T06:54:52;3.40;;;1.07;;
830;SDS011;397;50.564;7.272;2023-08-06T06:57:19;3.10;;;1.10;;
830;SDS011;397;50.564;7.272;2023-08-06T06:59:47;4.07;;;1.40;;
830;SDS011;397;50.564;7.272;2023-08-06T07:02:14;2.00;;;1.00;;
830;SDS011;397;50.564;7.272;2023-08-06T07:04:41;3.33;;;1.40;;
830;SDS011;397;50.564;7.272;2023-08-06T07:07:09;2.00;;;0.70;;
830;SDS011;397;50.564;7.272;2023-08-06T07:09:36;5.30;;;1.20;;
830;SDS011;397;50.564;7.272;2023-08-06T07:12:04;2.47;;;1.47;;
830;SDS011;397;50.564;7.272;2023-08-06T07:14:32;4.20;;;1.40;;
830;SDS011;397;50.564;7.272;2023-08-06T07:16:59;2.47;;;1.10;;
830;SDS011;397;50.564;7.272;2023-08-06T07:19:27;2.43;;;1.30;;
830;SDS011;397;50.564;7.272;2023-08-06T07:21:54;2.00;;;1.10;;
830;SDS011;397;50.564;7.272;2023-08-06T07:24:22;5.07;;;1.73;;
830;SDS011;397;50.564;7.272;2023-08-06T07:26:49;2.70;;;1.63;;
830;SDS011;397;50.564;7.272;2023-08-06T07:29:18;2.27;;;1.50;;
830;SDS011;397;50.564;7.272;2023-08-06T07:31:47;4.30;;;2.00;;
830;SDS011;397;50.564;7.272;2023-08-06T07:34:16;3.67;;;1.40;;
830;SDS011;397;50.564;7.272;2023-08-06T07:36:44;2.10;;;1.33;;
830;SDS011;397;50.564;7.272;2023-08-06T07:39:12;2.50;;;1.30;;
830;SDS011;397;50.564;7.272;2023-08-06T07:41:40;2.60;;;1.60;;
830;SDS011;397;50.564;7.272;2023-08-06T07:44:07;2.53;;;1.80;;
830;SDS011;397;50.564;7.272;2023-08-06T07:46:35;2.80;;;2.17;;
830;SDS011;397;50.564;7.272;2023-08-06T07:49:02;3.10;;;1.67;;
830;SDS011;397;50.564;7.272;2023-08-06T07:51:29;3.70;;;1.70;;
830;SDS011;397;50.564;7.272;2023-08-06T07:53:57;4.70;;;2.27;;
830;SDS011;397;50.564;7.272;2023-08-06T07:56:24;4.70;;;2.30;;
830;SDS011;397;50.564;7.272;2023-08-06T07:58:52;2.40;;;1.43;;
830;SDS011;397;50.564;7.272;2023-08-06T08:01:19;2.80;;;1.80;;
830;SDS011;397;50.564;7.272;2023-08-06T08:03:47;3.43;;;1.60;;
830;SDS011;397;50.564;7.272;2023-08-06T08:06:14;2.63;;;1.13;;
830;SDS011;397;50.564;7.272;2023-08-06T08:08:42;2.20;;;1.30;;
830;SDS011;397;50.564;7.272;2023-08-06T08:11:09;2.20;;;1.40;;
830;SDS011;397;50.564;7.272;2023-08-06T08:13:37;2.33;;;1.43;;
830;SDS011;397;50.564;7.272;2023-08-06T08:16:04;2.40;;;1.20;;
830;SDS011;397;50.564;7.272;2023-08-06T08:18:32;2.27;;;1.20;;
830;SDS011;397;50.564;7.272;2023-08-06T08:21:00;4.03;;;1.43;;
830;SDS011;397;50.564;7.272;2023-08-06T08:23:27;2.40;;;1.10;;
830;SDS011;397;50.564;7.272;2023-08-06T08:25:57;2.30;;;1.30;;
830;SDS011;397;50.564;7.272;2023-08-06T08:28:24;4.07;;;1.20;;
830;SDS011;397;50.564;7.272;2023-08-06T08:30:52;2.80;;;1.60;;
830;SDS011;397;50.564;7.272;2023-08-06T08:33:20;2.80;;;1.30;;
830;SDS011;397;50.564;7.272;2023-08-06T08:35:48;2.50;;;1.20;;
830;SDS011;397;50.564;7.272;2023-08-06T08:38:16;2.47;;;1.53;;
830;SDS011;397;50.564;7.272;2023-08-06T08:40:46;2.60;;;1.40;;
830;SDS011;397;50.564;7.272;2023-08-06T08:43:15;4.50;;;1.30;;
830;SDS011;397;50.564;7.272;2023-08-06T08:45:43;2.90;;;1.40;;
830;SDS011;397;50.564;7.272;2023-08-06T08:48:15;3.77;;;1.07;;
830;SDS011;397;50.564;7.272;2023-08-06T08:50:45;2.37;;;1.30;;
830;SDS011;397;50.564;7.272;2023-08-06T08:53:16;5.70;;;1.70;;
830;SDS011;397;50.564;7.272;2023-08-06T08:55:46;3.53;;;1.10;;
830;SDS011;397;50.564;7.272;2023-08-06T08:58:14;4.83;;;1.60;;
830;SDS011;397;50.564;7.272;2023-08-06T09:00:42;2.30;;;1.10;;
830;SDS011;397;50.564;7.272;2023-08-06T09:03:11;5.20;;;1.53;;
830;SDS011;397;50.564;7.272;2023-08-06T09:05:40;2.57;;;1.27;;
830;SDS011;397;50.564;7.272;2023-08-06T09:08:10;2.40;;;1.20;;
830;SDS011;397;50.564;7.272;2023-08-06T09:10:40;3.27;;;1.50;;
830;SDS011;397;50.564;7.272;2023-08-06T09:13:10;2.53;;;1.67;;
830;SDS011;397;50.564;7.272;2023-08-06T09:15:38;4.70;;;2.10;;
830;SDS011;397;50.564;7.272;2023-08-06T09:18:13;3.07;;;2.10;;
830;SDS011;397;50.564;7.272;2023-08-06T09:20:40;2.27;;;1.40;;
830;SDS011;397;50.564;7.272;2023-08-06T09:23:08;3.90;;;2.30;;
830;SDS011;397;50.564;7.272;2023-08-06T09:25:40;2.30;;;1.90;;
830;SDS011;397;50.564;7.272;2023-08-06T09:28:07;2.63;;;1.60;;
830;SDS011;397;50.564;7.272;2023-08-06T09:30:39;2.30;;;1.40;;
830;SDS011;397;50.564;7.272;2023-08-06T09:33:10;2.40;;;1.30;;
830;SDS011;397;50.564;7.272;2023-08-06T09:35:39;2.80;;;1.60;;
830;SDS011;397;50.564;7.272;2023-08-06T09:38:07;3.37;;;2.00;;
830;SDS011;397;50.564;7.272;2023-08-06T09:40:37;3.10;;;1.70;;
830;SDS011;397;50.564;7.272;2023-08-06T09:43:06;2.77;;;1.50;;
830;SDS011;397;50.564;7.272;2023-08-06T09:45:34;2.27;;;1.23;;
830;SDS011;397;50.564;7.272;2023-08-06T09:48:03;2.30;;;1.60;;
830;SDS011;397;50.564;7.272;2023-08-06T09:50:35;8.00;;;1.60;;
830;SDS011;397;50.564;7.272;2023-08-06T09:53:05;2.13;;;0.67;;
830;SDS011;397;50.564;7.272;2023-08-06T09:55:34;1.80;;;0.67;;
830;SDS011;397;50.564;7.272;2023-08-06T09:58:01;2.47;;;0.80;;
830;SDS011;397;50.564;7.272;2023-08-06T10:00:31;2.17;;;0.63;;
830;SDS011;397;50.564;7.272;2023-08-06T10:03:00;1.70;;;0.50;;
830;SDS011;397;50.564;7.272;2023-08-06T10:05:28;4.17;;;0.63;;
830;SDS011;397;50.564;7.272;2023-08-06T10:07:57;1.60;;;0.50;;
830;SDS011;397;50.564;7.272;2023-08-06T10:10:27;1.70;;;0.50;;
830;SDS011;397;50.564;7.272;2023-08-06T10:12:56;1.70;;;0.50;;
830;SDS011;397;50.564;7.272;2023-08-06T10:15:26;2.83;;;0.60;;
830;SDS011;397;50.564;7.272;2023-08-06T10:17:57;1.70;;;0.60;;
830;SDS011;397;50.564;7.272;2023-08-06T10:20:26;1.90;;;1.10;;
830;SDS011;397;50.564;7.272;2023-08-06T10:23:04;1.93;;;0.80;;
830;SDS011;397;50.564;7.272;2023-08-06T10:25:40;2.97;;;0.70;;
830;SDS011;397;50.564;7.272;2023-08-06T10:28:09;1.60;;;0.50;;
830;SDS011;397;50.564;7.272;2023-08-06T10:30:42;2.17;;;0.83;;
830;SDS011;397;50.564;7.272;2023-08-06T10:33:14;2.00;;;0.90;;
830;SDS011;397;50.564;7.272;2023-08-06T10:35:42;1.93;;;0.67;;
830;SDS011;397;50.564;7.272;2023-08-06T10:38:17;2.67;;;1.17;;
830;SDS011;397;50.564;7.272;2023-08-06T10:43:29;2.13;;;1.00;;
830;SDS011;397;50.564;7.272;2023-08-06T10:46:01;2.90;;;1.37;;
830;SDS011;397;50.564;7.272;2023-08-06T10:48:36;3.83;;;1.57;;
830;SDS011;397;50.564;7.272;2023-08-06T10:51:09;2.43;;;1.20;;
830;SDS011;397;50.564;7.272;2023-08-06T10:53:38;3.60;;;1.50;;
830;SDS011;397;50.564;7.272;2023-08-06T10:56:13;3.47;;;1.40;;
830;SDS011;397;50.564;7.272;2023-08-06T10:58:42;2.77;;;1.33;;
830;SDS011;397;50.564;7.272;2023-08-06T11:01:11;5.90;;;1.30;;
830;SDS011;397;50.564;7.272;2023-08-06T11:03:38;4.40;;;1.67;;
830;SDS011;397;50.564;7.272;2023-08-06T11:06:07;3.23;;;1.77;;
830;SDS011;397;50.564;7.272;2023-08-06T11:08:38;3.20;;;1.40;;
830;SDS011;397;50.564;7.272;2023-08-06T11:11:08;3.30;;;1.23;;
830;SDS011;397;50.564;7.272;2023-08-06T11:13:43;2.83;;;1.17;;
830;SDS011;397;50.564;7.272;2023-08-06T11:16:15;2.87;;;1.30;;
830;SDS011;397;50.564;7.272;2023-08-06T11:18:44;3.20;;;1.30;;
830;SDS011;397;50.564;7.272;2023-08-06T11:21:21;2.77;;;1.23;;
830;SDS011;397;50.564;7.272;2023-08-06T11:23:46;4.20;;;1.27;;
830;SDS011;397;50.564;7.272;2023-08-06T11:26:18;3.10;;;1.40;;
830;SDS011;397;50.564;7.272;2023-08-06T11:28:46;2.60;;;0.93;;
830;SDS011;397;50.564;7.272;2023-08-06T11:31:20;3.90;;;1.20;;
830;SDS011;397;50.564;7.272;2023-08-06T11:33:51;2.77;;;0.90;;
830;SDS011;397;50.564;7.272;2023-08-06T11:36:32;3.10;;;1.13;;
830;SDS011;397;50.564;7.272;2023-08-06T11:39:01;3.80;;;1.10;;
830;SDS011;397;50.564;7.272;2023-08-06T11:41:32;3.57;;;1.03;;
830;SDS011;397;50.564;7.272;2023-08-06T11:44:01;2.20;;;0.90;;
830;SDS011;397;50.564;7.272;2023-08-06T11:46:42;2.60;;;1.40;;
830;SDS011;397;50.564;7.272;2023-08-06T11:49:19;4.00;;;1.43;;
830;SDS011;397;50.564;7.272;2023-08-06T11:51:49;4.93;;;1.30;;
830;SDS011;397;50.564;7.272;2023-08-06T11:54:29;2.90;;;1.00;;
830;SDS011;397;50.564;7.272;2023-08-06T11:56:47;3.90;;;1.10;;
830;SDS011;397;50.564;7.272;2023-08-06T11:59:15;2.27;;;0.90;;
830;SDS011;397;50.564;7.272;2023-08-06T12:01:44;3.70;;;1.57;;
830;SDS011;397;50.564;7.272;2023-08-06T12:04:12;2.77;;;1.20;;
830;SDS011;397;50.564;7.272;2023-08-06T12:06:42;2.83;;;1.07;;
830;SDS011;397;50.564;7.272;2023-08-06T12:09:09;3.10;;;1.23;;
830;SDS011;397;50.564;7.272;2023-08-06T12:11:37;3.20;;;1.33;;
830;SDS011;397;50.564;7.272;2023-08-06T12:14:04;3.40;;;1.00;;
830;SDS011;397;50.564;7.272;2023-08-06T12:16:32;2.90;;;1.10;;
830;SDS011;397;50.564;7.272;2023-08-06T12:19:01;2.33;;;1.17;;
830;SDS011;397;50.564;7.272;2023-08-06T12:21:30;8.80;;;1.50;;
830;SDS011;397;50.564;7.272;2023-08-06T12:23:57;4.10;;;1.20;;
830;SDS011;397;50.564;7.272;2023-08-06T12:26:25;3.07;;;1.20;;
830;SDS011;397;50.564;7.272;2023-08-06T12:28:52;4.13;;;1.37;;
830;SDS011;397;50.564;7.272;2023-08-06T12:31:21;3.10;;;1.20;;
830;SDS011;397;50.564;7.272;2023-08-06T12:33:48;3.50;;;1.67;;
830;SDS011;397;50.564;7.272;2023-08-06T12:36:16;2.80;;;1.17;;
830;SDS011;397;50.564;7.272;2023-08-06T12:38:44;3.47;;;1.23;;
830;SDS011;397;50.564;7.272;2023-08-06T12:41:11;4.40;;;1.40;;
830;SDS011;397;50.564;7.272;2023-08-06T12:43:39;4.47;;;1.27;;
830;SDS011;397;50.564;7.272;2023-08-06T12:46:06;5.90;;;1.73;;
830;SDS011;397;50.564;7.272;2023-08-06T12:48:34;2.70;;;1.37;;
830;SDS011;397;50.564;7.272;2023-08-06T12:51:01;3.20;;;1.23;;
830;SDS011;397;50.564;7.272;2023-08-06T12:53:29;4.20;;;1.30;;
830;SDS011;397;50.564;7.272;2023-08-06T12:55:56;3.00;;;1.40;;
830;SDS011;397;50.564;7.272;2023-08-06T12:58:24;4.97;;;1.50;;
830;SDS011;397;50.564;7.272;2023-08-06T13:00:51;4.00;;;1.53;;
830;SDS011;397;50.564;7.272;2023-08-06T13:03:20;2.43;;;1.03;;
830;SDS011;397;50.564;7.272;2023-08-06T13:05:47;2.83;;;1.20;;
830;SDS011;397;50.564;7.272;2023-08-06T13:08:15;2.30;;;1.17;;
830;SDS011;397;50.564;7.272;2023-08-06T13:10:43;3.80;;;1.57;;
830;SDS011;397;50.564;7.272;2023-08-06T13:13:11;3.70;;;1.20;;
830;SDS011;397;50.564;7.272;2023-08-06T13:15:38;3.10;;;1.57;;
830;SDS011;397;50.564;7.272;2023-08-06T13:18:06;2.63;;;1.20;;
830;SDS011;397;50.564;7.272;2023-08-06T13:20:33;2.77;;;1.13;;
830;SDS011;397;50.564;7.272;2023-08-06T13:23:01;4.30;;;1.53;;
830;SDS011;397;50.564;7.272;2023-08-06T13:25:28;2.83;;;1.10;;
830;SDS011;397;50.564;7.272;2023-08-06T13:27:56;3.37;;;1.57;;
830;SDS011;397;50.564;7.272;2023-08-06T13:30:23;2.17;;;0.80;;
830;SDS011;397;50.564;7.272;2023-08-06T13:32:51;3.10;;;1.27;;
830;SDS011;397;50.564;7.272;2023-08-06T13:35:18;1.90;;;0.70;;
830;SDS011;397;50.564;7.272;2023-08-06T13:37:46;2.67;;;0.90;;
830;SDS011;397;50.564;7.272;2023-08-06T13:40:13;2.03;;;0.60;;
830;SDS011;397;50.564;7.272;2023-08-06T13:42:41;3.30;;;0.60;;
830;SDS011;397;50.564;7.272;2023-08-06T13:45:09;2.63;;;0.90;;
830;SDS011;397;50.564;7.272;2023-08-06T13:47:37;3.03;;;1.00;;
830;SDS011;397;50.564;7.272;2023-08-06T13:50:04;2.20;;;0.70;;
830;SDS011;397;50.564;7.272;2023-08-06T13:52:32;2.00;;;0.90;;
830;SDS011;397;50.564;7.272;2023-08-06T13:55:01;3.40;;;1.00;;
830;SDS011;397;50.564;7.272;2023-08-06T13:57:29;4.63;;;1.30;;
830;SDS011;397;50.564;7.272;2023-08-06T13:59:57;2.40;;;1.30;;
830;SDS011;397;50.564;7.272;2023-08-06T14:02:24;3.47;;;1.70;;
830;SDS011;397;50.564;7.272;2023-08-06T14:04:52;2.90;;;1.23;;
830;SDS011;397;50.564;7.272;2023-08-06T14:07:20;2.77;;;1.40;;
830;SDS011;397;50.564;7.272;2023-08-06T14:09:48;3.23;;;1.27;;
830;SDS011;397;50.564;7.272;2023-08-06T14:12:15;4.07;;;1.70;;
830;SDS011;397;50.564;7.272;2023-08-06T14:14:43;3.30;;;2.07;;
830;SDS011;397;50.564;7.272;2023-08-06T14:17:10;3.00;;;1.63;;
830;SDS011;397;50.564;7.272;2023-08-06T14:19:38;2.53;;;1.20;;
830;SDS011;397;50.564;7.272;2023-08-06T14:22:05;2.63;;;1.67;;
830;SDS011;397;50.564;7.272;2023-08-06T14:24:32;2.20;;;1.23;;
830;SDS011;397;50.564;7.272;2023-08-06T14:27:00;3.17;;;1.70;;
830;SDS011;397;50.564;7.272;2023-08-06T14:29:29;3.43;;;1.40;;
830;SDS011;397;50.564;7.272;2023-08-06T14:31:57;4.33;;;1.67;;
830;SDS011;397;50.564;7.272;2023-08-06T14:34:24;3.67;;;1.60;;
830;SDS011;397;50.564;7.272;2023-08-06T14:36:53;3.70;;;1.43;;
830;SDS011;397;50.564;7.272;2023-08-06T14:39:21;2.67;;;1.07;;
830;SDS011;397;50.564;7.272;2023-08-06T14:41:49;2.87;;;1.37;;
830;SDS011;397;50.564;7.272;2023-08-06T14:44:17;3.57;;;1.90;;
830;SDS011;397;50.564;7.272;2023-08-06T14:46:44;2.67;;;1.33;;
830;SDS011;397;50.564;7.272;2023-08-06T14:49:12;2.77;;;1.20;;
830;SDS011;397;50.564;7.272;2023-08-06T14:51:39;2.40;;;0.80;;
830;SDS011;397;50.564;7.272;2023-08-06T14:54:07;2.30;;;0.97;;
830;SDS011;397;50.564;7.272;2023-08-06T14:56:34;2.73;;;1.10;;
830;SDS011;397;50.564;7.272;2023-08-06T14:59:02;2.27;;;1.00;;
830;SDS011;397;50.564;7.272;2023-08-06T15:01:29;2.67;;;0.90;;
830;SDS011;397;50.564;7.272;2023-08-06T15:03:57;2.50;;;1.40;;
830;SDS011;397;50.564;7.272;2023-08-06T15:06:25;2.00;;;0.70;;
830;SDS011;397;50.564;7.272;2023-08-06T15:08:52;2.23;;;1.10;;
830;SDS011;397;50.564;7.272;2023-08-06T15:11:21;2.03;;;0.97;;
830;SDS011;397;50.564;7.272;2023-08-06T15:13:49;1.90;;;0.80;;
830;SDS011;397;50.564;7.272;2023-08-06T15:16:16;2.80;;;0.90;;
830;SDS011;397;50.564;7.272;2023-08-06T15:18:44;2.70;;;0.70;;
830;SDS011;397;50.564;7.272;2023-08-06T15:21:11;2.27;;;0.77;;
830;SDS011;397;50.564;7.272;2023-08-06T15:23:39;1.80;;;0.70;;
830;SDS011;397;50.564;7.272;2023-08-06T15:26:06;2.63;;;0.50;;
830;SDS011;397;50.564;7.272;2023-08-06T15:28:34;1.97;;;0.67;;
830;SDS011;397;50.564;7.272;2023-08-06T15:31:02;3.17;;;0.77;;
830;SDS011;397;50.564;7.272;2023-08-06T15:33:31;1.70;;;0.53;;
830;SDS011;397;50.564;7.272;2023-08-06T15:35:58;4.00;;;0.63;;
830;SDS011;397;50.564;7.272;2023-08-06T15:38:26;1.90;;;0.63;;
830;SDS011;397;50.564;7.272;2023-08-06T15:40:53;1.90;;;0.57;;
830;SDS011;397;50.564;7.272;2023-08-06T15:43:21;3.23;;;0.70;;
830;SDS011;397;50.564;7.272;2023-08-06T15:45:48;1.70;;;0.60;;
830;SDS011;397;50.564;7.272;2023-08-06T15:48:16;3.50;;;0.70;;
830;SDS011;397;50.564;7.272;2023-08-06T15:50:43;1.60;;;0.60;;
830;SDS011;397;50.564;7.272;2023-08-06T15:53:12;2.33;;;0.90;;
830;SDS011;397;50.564;7.272;2023-08-06T15:55:39;1.70;;;0.60;;
830;SDS011;397;50.564;7.272;2023-08-06T15:58:07;2.37;;;0.70;;
830;SDS011;397;50.564;7.272;2023-08-06T16:00:34;2.43;;;0.80;;
830;SDS011;397;50.564;7.272;2023-08-06T16:03:02;1.60;;;0.50;;
830;SDS011;397;50.564;7.272;2023-08-06T16:05:29;2.27;;;0.80;;
830;SDS011;397;50.564;7.272;2023-08-06T16:07:57;3.20;;;0.97;;
830;SDS011;397;50.564;7.272;2023-08-06T16:10:24;3.33;;;1.17;;